Time;durP1;ratioP1;P1;durP2;ratioP2;P2;SDS_P1;SDS_P2;PMS_P1;PMS_P2;Temp;Humidity;BMP_temperature;BMP_pressure;BME280_temperature;BME280_humidity;BME280_pressure;Samples;Min_cycle;Max_cycle;Signal;HPM_P1;HPM_P2
2022/01/04 00:02:18;;;;;;;3.42;2.22;;;;;;;14.02;51.75;98302.81;5091585;28;20106;-51
2022/01/04 00:04:44;;;;;;;9.43;3.10;;;;;;;13.88;52.85;98294.34;5092849;28;20150;-50
2022/01/04 00:07:09;;;;;;;6.47;2.50;;;;;;;13.81;52.05;98305.03;5091589;28;20032;-50
2022/01/04 00:09:40;;;;;;;4.78;2.22;;;;;;;13.91;52.39;98294.69;5092737;28;20385;-50
2022/01/04 00:14:53;;;;;;;4.97;2.10;;;;;;;14.01;52.01;98301.22;5071242;28;20409;-50
2022/01/04 00:17:19;;;;;;;3.08;1.73;;;;;;;14.00;51.92;98281.94;5092682;28;20024;-50
2022/01/04 00:19:45;;;;;;;8.73;2.35;;;;;;;13.90;52.31;98273.81;5092624;28;20035;-50
2022/01/04 00:22:10;;;;;;;4.22;1.80;;;;;;;13.93;51.73;98249.63;5092474;28;20020;-51
2022/01/04 00:24:36;;;;;;;3.70;1.70;;;;;;;13.91;51.83;98244.56;5092536;28;20042;-50
2022/01/04 00:27:02;;;;;;;3.47;1.85;;;;;;;13.90;51.20;98247.44;5092434;28;20020;-50
2022/01/04 00:29:28;;;;;;;5.97;2.28;;;;;;;13.89;51.13;98237.94;5092417;28;20024;-51
2022/01/04 00:31:54;;;;;;;8.68;2.75;;;;;;;13.94;51.03;98273.13;5092376;28;20028;-49
2022/01/04 00:34:19;;;;;;;5.78;2.85;;;;;;;13.99;50.96;98253.97;5092338;28;20024;-50
2022/01/04 00:36:45;;;;;;;7.47;3.08;;;;;;;13.99;51.25;98260.03;5092292;28;20108;-50
2022/01/04 00:39:11;;;;;;;4.70;2.00;;;;;;;13.97;51.03;98245.47;5092381;28;20028;-50
2022/01/04 00:41:36;;;;;;;4.72;2.08;;;;;;;13.92;51.43;98234.81;5092206;28;20027;-51
2022/01/04 00:44:02;;;;;;;2.83;1.63;;;;;;;13.90;51.42;98252.72;5090975;28;20063;-50
2022/01/04 00:46:28;;;;;;;4.10;1.85;;;;;;;13.87;51.98;98235.53;5091969;28;20102;-50
2022/01/04 00:49:09;;;;;;;6.63;1.80;;;;;;;13.84;51.66;98248.38;5090699;28;20016;-50
2022/01/04 00:51:39;;;;;;;5.10;1.90;;;;;;;13.81;51.62;98220.63;5092083;28;20035;-51
2022/01/04 00:54:05;;;;;;;4.82;1.33;;;;;;;13.79;51.70;98256.97;5092668;28;20473;-50
2022/01/04 00:56:31;;;;;;;5.18;2.22;;;;;;;13.76;52.00;98254.78;5091987;28;20478;-51
2022/01/04 00:58:57;;;;;;;4.93;1.92;;;;;;;13.80;52.15;98250.66;5092060;28;20031;-50
2022/01/04 01:01:23;;;;;;;5.85;2.35;;;;;;;13.84;52.11;98249.16;5092009;28;20073;-51
2022/01/04 01:03:49;;;;;;;6.20;2.33;;;;;;;13.87;51.71;98232.88;5091977;28;20020;-50
2022/01/04 01:06:15;;;;;;;3.78;1.65;;;;;;;13.92;51.59;98235.63;5092010;28;20040;-50
2022/01/04 01:08:41;;;;;;;6.53;2.30;;;;;;;13.92;52.45;98227.72;5090844;28;20055;-51
2022/01/04 01:11:08;;;;;;;5.65;3.13;;;;;;;13.89;53.08;98208.91;5091895;28;20562;-51
2022/01/04 01:13:34;;;;;;;4.13;2.05;;;;;;;13.80;52.68;98216.38;5091869;28;20035;-50
2022/01/04 01:16:00;;;;;;;5.28;2.28;;;;;;;13.77;52.79;98216.84;5090579;28;20024;-50
2022/01/04 01:18:26;;;;;;;6.50;2.03;;;;;;;13.78;52.90;98208.72;5091863;28;20067;-50
2022/01/04 01:20:52;;;;;;;3.05;1.40;;;;;;;13.81;52.23;98209.28;5091789;28;20450;-51
2022/01/04 01:23:22;;;;;;;6.53;2.40;;;;;;;13.74;54.08;98218.13;5091863;28;20027;-51
2022/01/04 01:25:48;;;;;;;6.63;2.25;;;;;;;13.48;55.25;98215.97;5091755;28;20028;-51
2022/01/04 01:28:14;;;;;;;6.28;1.80;;;;;;;13.36;55.19;98205.41;5091650;28;20363;-50
2022/01/04 01:30:42;;;;;;;3.42;1.55;;;;;;;13.44;53.64;98204.28;5091651;28;20016;-51
2022/01/04 01:33:09;;;;;;;4.50;1.75;;;;;;;13.43;53.09;98194.78;5091708;28;20020;-51
2022/01/04 01:35:37;;;;;;;4.60;2.42;;;;;;;13.42;53.14;98201.88;5091657;28;20024;-51
2022/01/04 01:38:03;;;;;;;5.57;2.20;;;;;;;13.48;53.22;98202.78;5091696;28;20028;-50
2022/01/04 01:40:29;;;;;;;4.55;2.08;;;;;;;13.49;52.43;98193.84;5091619;28;20398;-50
2022/01/04 01:42:56;;;;;;;4.10;1.60;;;;;;;13.47;52.33;98201.19;5091619;28;20023;-50
2022/01/04 01:45:23;;;;;;;3.70;1.90;;;;;;;13.62;52.02;98208.59;5091356;28;20020;-51
2022/01/04 01:47:50;;;;;;;3.00;2.03;;;;;;;13.76;51.65;98209.97;5091481;28;20059;-51
2022/01/04 01:50:16;;;;;;;5.72;2.08;;;;;;;13.78;50.90;98216.63;5091421;28;20544;-50
2022/01/04 01:52:45;;;;;;;6.95;2.17;;;;;;;13.79;51.26;98227.97;5091473;28;20021;-49
2022/01/04 01:55:13;;;;;;;3.92;1.88;;;;;;;13.85;50.52;98220.97;5091501;28;20027;-50
2022/01/04 01:57:39;;;;;;;4.20;2.15;;;;;;;13.83;50.70;98229.09;5091509;28;20397;-50
2022/01/04 02:00:08;;;;;;;6.32;1.65;;;;;;;13.76;50.24;98228.41;5091431;28;20099;-50
2022/01/04 02:02:33;;;;;;;6.15;2.83;;;;;;;13.68;50.71;98205.03;5091404;28;20585;-50
2022/01/04 02:04:59;;;;;;;4.10;2.03;;;;;;;13.82;50.61;98216.16;5090032;28;20024;-49
2022/01/04 02:07:26;;;;;;;4.15;1.85;;;;;;;13.88;50.22;98209.94;5091384;28;20032;-51
2022/01/04 02:10:03;;;;;;;5.78;2.70;;;;;;;13.95;50.21;98207.97;5091369;28;20016;-50
2022/01/04 02:12:35;;;;;;;6.38;2.00;;;;;;;13.90;50.20;98192.03;5091351;28;20054;-50
2022/01/04 02:15:00;;;;;;;5.07;2.30;;;;;;;13.92;49.97;98187.34;5093201;28;20016;-51
2022/01/04 02:17:26;;;;;;;8.88;2.42;;;;;;;13.91;50.34;98167.28;5093637;28;20116;-50
2022/01/04 02:19:57;;;;;;;5.82;2.25;;;;;;;13.94;50.30;98166.78;5094983;28;20020;-50
2022/01/04 02:22:23;;;;;;;7.88;2.58;;;;;;;13.82;50.17;98182.66;5094905;28;20028;-51
2022/01/04 02:24:48;;;;;;;3.00;1.80;;;;;;;13.75;50.29;98195.19;5094830;28;20021;-51
2022/01/04 02:27:16;;;;;;;5.95;2.55;;;;;;;13.66;50.59;98189.47;5094794;28;20099;-50
2022/01/04 02:29:43;;;;;;;5.90;2.55;;;;;;;13.62;50.75;98176.97;5094698;28;20493;-51
2022/01/04 02:32:09;;;;;;;5.40;2.40;;;;;;;13.61;50.57;98178.81;5094735;28;20040;-50
2022/01/04 02:34:35;;;;;;;7.70;2.97;;;;;;;13.61;50.54;98181.44;5094652;28;20444;-51
2022/01/04 02:37:00;;;;;;;4.53;2.40;;;;;;;13.57;50.57;98177.69;5094620;28;20027;-50
2022/01/04 02:39:27;;;;;;;5.28;2.33;;;;;;;13.49;50.84;98178.81;5094613;28;20097;-51
2022/01/04 02:41:52;;;;;;;8.88;2.40;;;;;;;13.45;50.82;98171.63;5093212;28;20060;-51
2022/01/04 02:44:18;;;;;;;6.32;2.25;;;;;;;13.41;51.39;98167.84;5094755;28;20051;-50
2022/01/04 02:46:44;;;;;;;5.40;2.38;;;;;;;13.38;51.18;98187.53;5094153;28;20044;-51
2022/01/04 02:49:10;;;;;;;5.70;2.13;;;;;;;13.31;51.17;98176.31;5094336;28;20020;-51
2022/01/04 02:51:35;;;;;;;5.25;2.47;;;;;;;13.31;51.64;98166.59;5094274;28;20036;-50
2022/01/04 02:54:01;;;;;;;4.72;2.25;;;;;;;13.35;51.57;98151.13;5094293;28;20486;-51
2022/01/04 02:56:27;;;;;;;8.05;2.67;;;;;;;13.27;51.32;98162.78;5092860;28;20502;-51
2022/01/04 02:58:53;;;;;;;6.53;2.28;;;;;;;13.28;51.90;98164.38;5094212;28;20024;-51
2022/01/04 03:01:19;;;;;;;4.40;1.90;;;;;;;13.28;51.47;98145.13;5094139;28;20016;-50
2022/01/04 03:03:44;;;;;;;7.72;2.50;;;;;;;13.28;51.90;98160.94;5094105;28;20020;-50
2022/01/04 03:06:14;;;;;;;7.13;2.70;;;;;;;13.26;51.91;98142.75;5094025;28;20493;-50
2022/01/04 03:08:40;;;;;;;7.97;3.85;;;;;;;13.27;51.83;98151.44;5093884;28;20020;-50
2022/01/04 03:11:06;;;;;;;6.47;2.72;;;;;;;13.25;51.90;98145.59;5094005;28;20517;-51
2022/01/04 03:13:31;;;;;;;4.85;2.45;;;;;;;13.29;51.94;98139.66;5093888;28;20024;-50
2022/01/04 03:15:57;;;;;;;4.60;2.50;;;;;;;13.34;51.72;98131.88;5093846;28;20032;-50
2022/01/04 03:18:22;;;;;;;8.32;3.08;;;;;;;13.25;51.89;98117.41;5092519;28;20032;-50
2022/01/04 03:20:48;;;;;;;4.63;2.05;;;;;;;13.23;52.29;98126.59;5092446;28;20509;-51
2022/01/04 03:23:14;;;;;;;5.72;3.10;;;;;;;13.14;52.12;98107.69;5093753;28;20020;-50
2022/01/04 03:25:40;;;;;;;6.18;2.95;;;;;;;13.07;52.39;98104.38;5092780;28;20012;-51
2022/01/04 03:28:07;;;;;;;5.28;3.00;;;;;;;12.95;52.65;98099.91;5093378;28;20024;-50
2022/01/04 03:30:33;;;;;;;7.10;3.10;;;;;;;12.89;53.03;98111.34;5093522;28;20027;-50
2022/01/04 03:33:00;;;;;;;5.72;3.00;;;;;;;12.89;52.93;98087.66;5093854;28;20035;-50
2022/01/04 03:35:26;;;;;;;9.93;3.60;;;;;;;12.87;53.37;98079.19;5092079;28;20440;-51
2022/01/04 03:37:52;;;;;;;4.57;2.60;;;;;;;12.92;53.52;98076.69;5092168;28;20050;-51
2022/01/04 03:40:18;;;;;;;10.68;3.95;;;;;;;12.98;52.81;98073.13;5093394;28;20493;-51
2022/01/04 03:42:44;;;;;;;10.15;3.22;;;;;;;13.02;52.71;98060.28;5092050;28;20024;-51
2022/01/04 03:45:10;;;;;;;7.78;2.97;;;;;;;13.05;52.67;98066.91;5091736;28;20081;-50
2022/01/04 03:47:36;;;;;;;31.75;10.13;;;;;;;13.04;52.69;98062.69;5093199;28;20046;-50
2022/01/04 03:50:03;;;;;;;6.97;3.75;;;;;;;12.99;52.53;98048.38;5093195;28;20016;-50
2022/01/04 03:52:30;;;;;;;4.75;2.45;;;;;;;12.99;52.51;98032.56;5091775;28;20402;-50
2022/01/04 03:54:56;;;;;;;11.65;3.45;;;;;;;13.03;52.57;98001.28;5091741;28;20016;-50
2022/01/04 03:57:21;;;;;;;5.43;2.70;;;;;;;13.03;52.61;98014.47;5093068;28;20066;-51
2022/01/04 03:59:47;;;;;;;6.05;3.00;;;;;;;13.02;52.26;98002.34;5093057;28;20028;-51
2022/01/04 04:02:13;;;;;;;10.70;3.10;;;;;;;13.04;52.90;98002.09;5092935;28;20512;-51
2022/01/04 04:04:38;;;;;;;4.43;2.00;;;;;;;13.08;52.00;97964.53;5092983;28;20023;-51
2022/01/04 04:07:04;;;;;;;6.97;3.03;;;;;;;13.03;52.57;97963.63;5092862;28;20039;-51
2022/01/04 04:09:34;;;;;;;11.48;5.32;;;;;;;12.94;52.67;97937.66;5092777;28;20448;-50
2022/01/04 04:12:01;;;;;;;5.82;2.58;;;;;;;12.91;52.35;97955.75;5092727;28;20520;-51
2022/01/04 04:14:27;;;;;;;6.35;2.88;;;;;;;12.81;53.03;97932.66;5092763;28;20050;-51
2022/01/04 04:16:53;;;;;;;7.82;3.00;;;;;;;12.68;53.56;97906.59;5092687;28;20118;-51
2022/01/04 04:19:19;;;;;;;3.65;2.10;;;;;;;12.75;53.56;97863.28;5092621;28;20098;-51
2022/01/04 04:21:44;;;;;;;6.93;2.60;;;;;;;12.69;53.41;97897.66;5092610;28;20031;-50
2022/01/04 04:24:10;;;;;;;7.95;2.53;;;;;;;12.58;53.71;97900.09;5092590;28;20028;-51
2022/01/04 04:26:36;;;;;;;4.75;2.58;;;;;;;12.57;53.95;97895.03;5091172;28;20024;-51
2022/01/04 04:29:02;;;;;;;5.60;2.70;;;;;;;12.54;54.16;97921.84;5091174;28;20435;-50
2022/01/04 04:31:28;;;;;;;3.05;2.00;;;;;;;12.58;53.56;97897.44;5092418;28;20555;-51
2022/01/04 04:33:53;;;;;;;7.10;3.00;;;;;;;12.54;53.71;97901.56;5091095;28;20056;-51
2022/01/04 04:36:19;;;;;;;9.63;3.00;;;;;;;12.52;53.99;97874.69;5092349;28;20031;-51
2022/01/04 04:38:45;;;;;;;7.00;3.10;;;;;;;12.48;54.22;97867.50;5090710;28;20085;-50
2022/01/04 04:41:10;;;;;;;9.77;3.55;;;;;;;12.54;54.19;97842.88;5090918;28;20031;-51
2022/01/04 04:43:36;;;;;;;4.18;2.22;;;;;;;12.59;53.50;97854.28;5092286;28;20030;-50
2022/01/04 04:46:02;;;;;;;9.00;3.55;;;;;;;12.61;53.90;97840.09;5091976;28;20036;-50
2022/01/04 04:48:28;;;;;;;6.88;3.92;;;;;;;12.69;54.05;97845.78;5092116;28;20044;-51
2022/01/04 04:50:54;;;;;;;5.40;2.88;;;;;;;12.78;53.20;97854.13;5092178;28;20069;-50
2022/01/04 04:53:19;;;;;;;4.60;2.38;;;;;;;12.80;53.75;97875.75;5092344;28;20044;-50
2022/01/04 04:55:45;;;;;;;9.10;4.18;;;;;;;12.81;53.67;97887.09;5092078;28;20094;-50
2022/01/04 04:58:12;;;;;;;4.80;2.42;;;;;;;12.78;53.33;97935.75;5090680;28;20058;-51
2022/01/04 05:00:38;;;;;;;12.38;5.47;;;;;;;12.68;54.16;97920.56;5092004;28;20012;-51
2022/01/04 05:03:04;;;;;;;5.88;2.22;;;;;;;12.91;53.95;97946.00;5092021;28;20035;-51
2022/01/04 05:05:29;;;;;;;8.65;4.35;;;;;;;13.02;53.58;97957.56;5091926;28;20020;-51
2022/01/04 05:07:55;;;;;;;10.57;5.13;;;;;;;13.00;53.59;97967.53;5091878;28;20377;-50
2022/01/04 05:10:21;;;;;;;11.32;5.43;;;;;;;13.02;53.88;97967.28;5091825;28;20098;-51
2022/01/04 05:12:46;;;;;;;10.85;4.82;;;;;;;13.27;54.20;97938.78;5091883;28;20035;-50
2022/01/04 05:15:12;;;;;;;15.43;5.38;;;;;;;13.29;53.15;97943.81;5091800;28;20035;-50
2022/01/04 05:17:38;;;;;;;10.43;3.47;;;;;;;13.27;53.43;97941.41;5091854;28;20391;-51
2022/01/04 05:20:04;;;;;;;13.75;6.32;;;;;;;13.18;53.39;97934.94;5091759;28;20375;-50
2022/01/04 05:22:30;;;;;;;7.40;3.47;;;;;;;13.06;53.62;97931.53;5090604;28;20028;-51
2022/01/04 05:24:56;;;;;;;6.18;3.30;;;;;;;12.99;54.06;97936.94;5091818;28;20028;-50
2022/01/04 05:27:22;;;;;;;11.60;5.05;;;;;;;12.87;54.67;97933.56;5091691;28;20031;-50
2022/01/04 05:29:48;;;;;;;10.10;4.75;;;;;;;12.74;55.03;97948.59;5091650;28;20509;-50
2022/01/04 05:32:13;;;;;;;8.75;3.45;;;;;;;12.75;55.30;97939.63;5091703;28;20121;-51
2022/01/04 05:34:39;;;;;;;5.90;2.60;;;;;;;12.85;55.38;97931.16;5091672;28;20502;-51
2022/01/04 05:37:05;;;;;;;8.90;3.35;;;;;;;12.80;55.09;97933.69;5091654;28;20024;-51
2022/01/04 05:39:31;;;;;;;12.23;5.60;;;;;;;12.66;56.08;97942.88;5090311;28;20032;-50
2022/01/04 05:41:57;;;;;;;9.20;3.65;;;;;;;12.61;56.52;97938.28;5091570;28;20115;-51
2022/01/04 05:44:22;;;;;;;6.35;2.67;;;;;;;12.51;56.51;97936.25;5091586;28;20024;-51
2022/01/04 05:46:48;;;;;;;7.40;3.58;;;;;;;12.46;56.63;97920.38;5091351;28;20127;-50
2022/01/04 05:49:14;;;;;;;8.82;3.17;;;;;;;12.57;56.90;97935.31;5092191;28;20435;-51
2022/01/04 05:51:39;;;;;;;5.90;2.75;;;;;;;12.61;56.66;97927.75;5094205;28;20032;-50
2022/01/04 05:54:05;;;;;;;6.65;3.05;;;;;;;12.53;56.54;97936.81;5095496;28;20023;-51
2022/01/04 05:56:31;;;;;;;8.40;2.88;;;;;;;12.49;57.22;97927.78;5094062;28;20025;-51
2022/01/04 05:58:57;;;;;;;10.50;3.20;;;;;;;12.45;57.72;97916.13;5095376;28;20107;-51
2022/01/04 06:01:22;;;;;;;7.25;3.40;;;;;;;12.41;57.67;97912.34;5095372;28;20107;-51
2022/01/04 06:03:51;;;;;;;10.18;4.75;;;;;;;12.30;57.50;97921.88;5095364;28;20034;-50
2022/01/04 06:06:17;;;;;;;6.53;2.92;;;;;;;12.31;57.94;97933.19;5095300;28;20082;-51
2022/01/04 06:08:43;;;;;;;10.65;3.97;;;;;;;12.28;57.91;97931.03;5095172;28;20513;-50
2022/01/04 06:11:28;;;;;;;14.70;5.05;;;;;;;12.28;58.00;97920.50;5095074;28;20417;-50
2022/01/04 06:16:38;;;;;;;9.95;4.53;;;;;;;12.38;57.70;97929.41;5095384;28;20050;-51
2022/01/04 06:19:03;;;;;;;8.35;4.20;;;;;;;12.52;57.78;97914.16;5094959;28;20549;-51
2022/01/04 06:21:29;;;;;;;11.45;4.38;;;;;;;12.54;57.12;97900.78;5094977;28;20024;-50
2022/01/04 06:23:55;;;;;;;15.25;5.97;;;;;;;12.52;57.20;97902.84;5094906;28;20070;-50
2022/01/04 06:26:20;;;;;;;11.23;5.50;;;;;;;12.54;57.59;97908.69;5094778;28;20016;-50
2022/01/04 06:28:46;;;;;;;9.32;3.85;;;;;;;12.55;57.12;97900.53;5094759;28;20043;-51
2022/01/04 06:31:12;;;;;;;19.15;7.55;;;;;;;12.62;57.14;97913.59;5094701;28;20024;-51
2022/01/04 06:33:38;;;;;;;10.85;5.47;;;;;;;12.57;56.69;97911.63;5093389;28;20086;-50
2022/01/04 06:36:04;;;;;;;9.63;4.25;;;;;;;12.43;56.68;97915.53;5094650;28;20099;-51
2022/01/04 06:38:29;;;;;;;9.23;3.20;;;;;;;12.38;57.21;97920.72;5093309;28;20036;-50
2022/01/04 06:40:55;;;;;;;12.43;4.85;;;;;;;12.37;57.18;97911.22;5094519;28;20024;-50
2022/01/04 06:43:21;;;;;;;9.68;4.70;;;;;;;12.34;57.03;97899.31;5094537;28;20024;-50
2022/01/04 06:45:47;;;;;;;9.80;3.33;;;;;;;12.34;56.54;97896.69;5094246;28;20079;-50
2022/01/04 06:48:12;;;;;;;7.72;2.85;;;;;;;12.38;56.26;97886.50;5094362;28;20020;-50
2022/01/04 06:50:38;;;;;;;5.97;2.55;;;;;;;12.42;55.88;97890.28;5093071;28;20028;-50
2022/01/04 06:53:04;;;;;;;7.65;2.90;;;;;;;12.47;55.93;97881.69;5094328;28;20021;-51
2022/01/04 06:55:29;;;;;;;5.53;2.83;;;;;;;12.48;55.60;97865.66;5094313;28;20480;-50
2022/01/04 06:57:55;;;;;;;4.70;2.83;;;;;;;12.44;55.99;97875.06;5092921;28;20494;-51
2022/01/04 07:00:21;;;;;;;7.72;2.80;;;;;;;12.44;55.68;97880.31;5092692;28;20165;-50
2022/01/04 07:02:47;;;;;;;5.93;3.40;;;;;;;12.43;56.01;97897.13;5094205;28;20098;-50
2022/01/04 07:05:13;;;;;;;7.05;2.90;;;;;;;12.38;55.88;97886.50;5094049;28;20035;-51
2022/01/04 07:07:39;;;;;;;4.65;2.72;;;;;;;12.25;56.38;97892.81;5092922;28;20172;-51
2022/01/04 07:10:05;;;;;;;9.60;3.42;;;;;;;12.24;56.62;97893.06;5094011;28;20020;-50
2022/01/04 07:12:30;;;;;;;6.45;3.28;;;;;;;12.27;56.97;97889.94;5093981;28;20094;-50
2022/01/04 07:14:56;;;;;;;8.43;3.45;;;;;;;12.36;56.57;97885.94;5092553;28;20051;-50
2022/01/04 07:17:22;;;;;;;12.32;4.78;;;;;;;12.41;56.68;97886.03;5092556;28;20027;-51
2022/01/04 07:19:49;;;;;;;9.00;4.07;;;;;;;12.37;56.15;97885.72;5093819;28;20032;-50
2022/01/04 07:22:14;;;;;;;5.40;3.30;;;;;;;12.36;56.53;97880.69;5093757;28;20054;-51
2022/01/04 07:24:40;;;;;;;9.25;3.13;;;;;;;12.44;56.65;97882.16;5093754;28;20106;-51
2022/01/04 07:27:06;;;;;;;9.30;4.60;;;;;;;12.47;57.13;97879.06;5093625;28;20016;-51
2022/01/04 07:29:32;;;;;;;6.95;3.25;;;;;;;12.49;56.87;97880.41;5092207;28;20027;-51
2022/01/04 07:31:58;;;;;;;9.60;4.47;;;;;;;12.37;57.65;97875.19;5093566;28;20024;-51
2022/01/04 07:34:23;;;;;;;11.82;5.10;;;;;;;12.35;57.33;97860.66;5092198;28;20055;-51
2022/01/04 07:36:49;;;;;;;8.85;2.63;;;;;;;12.33;57.80;97860.09;5093453;28;20095;-51
2022/01/04 07:39:15;;;;;;;7.13;3.35;;;;;;;12.33;57.31;97847.72;5093509;28;20069;-51
2022/01/04 07:41:41;;;;;;;11.05;4.50;;;;;;;12.41;57.15;97846.56;5092082;28;20024;-51
2022/01/04 07:44:06;;;;;;;13.88;6.25;;;;;;;12.42;57.21;97844.75;5092050;28;20043;-51
2022/01/04 07:46:32;;;;;;;18.00;9.00;;;;;;;12.53;57.23;97854.44;5090426;28;20456;-50
2022/01/04 07:48:58;;;;;;;9.82;4.47;;;;;;;12.54;56.63;97827.88;5093161;28;20024;-50
2022/01/04 07:51:24;;;;;;;10.35;4.75;;;;;;;12.49;57.01;97833.03;5093184;28;20375;-50
2022/01/04 07:53:50;;;;;;;23.95;8.25;;;;;;;12.49;57.17;97830.41;5091839;28;20028;-50
2022/01/04 07:56:15;;;;;;;11.57;4.22;;;;;;;12.51;57.03;97827.53;5091729;28;20027;-50
2022/01/04 07:58:41;;;;;;;7.13;3.83;;;;;;;12.51;57.15;97827.53;5093059;28;20031;-50
2022/01/04 08:01:07;;;;;;;13.48;5.57;;;;;;;12.52;57.09;97816.78;5093015;28;20479;-50
2022/01/04 08:03:33;;;;;;;11.43;3.83;;;;;;;12.48;56.88;97831.44;5092993;28;20052;-50
2022/01/04 08:05:59;;;;;;;12.02;4.75;;;;;;;12.45;57.31;97828.47;5092893;28;20024;-50
2022/01/04 08:08:24;;;;;;;7.93;4.25;;;;;;;12.54;56.64;97820.00;5092837;28;20062;-50
2022/01/04 08:10:51;;;;;;;9.80;5.00;;;;;;;12.51;57.07;97823.06;5092779;28;20107;-50
2022/01/04 08:13:17;;;;;;;7.85;4.03;;;;;;;12.52;56.66;97813.38;5091207;28;20487;-51
2022/01/04 08:15:43;;;;;;;10.50;5.00;;;;;;;12.50;56.77;97797.00;5092789;28;20455;-50
2022/01/04 08:18:08;;;;;;;8.27;3.58;;;;;;;12.50;57.07;97807.53;5092651;28;20032;-51
2022/01/04 08:20:34;;;;;;;9.25;4.07;;;;;;;12.56;56.98;97807.41;5092721;28;20374;-51
2022/01/04 08:23:02;;;;;;;8.38;4.07;;;;;;;12.56;56.88;97783.72;5091339;28;20024;-51
2022/01/04 08:25:27;;;;;;;6.78;3.45;;;;;;;12.51;57.03;97793.34;5092575;28;20042;-50
2022/01/04 08:27:53;;;;;;;14.55;6.78;;;;;;;12.47;57.95;97797.47;5092456;28;20021;-50
2022/01/04 08:30:19;;;;;;;8.07;4.30;;;;;;;12.50;57.52;97800.44;5092473;28;20032;-50
2022/01/04 08:32:45;;;;;;;8.00;4.50;;;;;;;12.44;58.18;97785.59;5092452;28;20069;-50
2022/01/04 08:35:11;;;;;;;8.18;4.50;;;;;;;12.50;58.36;97787.28;5092379;28;20043;-51
2022/01/04 08:37:38;;;;;;;8.65;4.00;;;;;;;12.56;57.56;97769.75;5092393;28;20024;-50
2022/01/04 08:40:05;;;;;;;8.88;4.95;;;;;;;12.59;57.92;97754.25;5092263;28;20549;-51
2022/01/04 08:42:32;;;;;;;71.22;50.15;;;;;;;12.69;57.61;97766.03;5092283;28;20506;-50
2022/01/04 08:44:58;;;;;;;12.90;8.90;;;;;;;12.71;57.77;97764.75;5092251;28;20035;-50
2022/01/04 08:47:25;;;;;;;19.52;15.80;;;;;;;12.68;57.79;97767.06;5092009;28;20040;-51
2022/01/04 08:49:51;;;;;;;22.05;13.38;;;;;;;12.61;58.43;97771.66;5092110;28;20024;-51
2022/01/04 08:52:17;;;;;;;18.20;11.90;;;;;;;12.63;58.17;97766.97;5092125;28;20074;-51
2022/01/04 08:54:42;;;;;;;9.65;5.95;;;;;;;12.64;58.29;97732.53;5092365;28;20020;-50
2022/01/04 08:57:08;;;;;;;15.13;7.20;;;;;;;12.73;58.62;97770.56;5092061;28;20456;-51
2022/01/04 08:59:34;;;;;;;8.55;5.15;;;;;;;12.73;57.65;97761.88;5090750;28;20024;-50
2022/01/04 09:02:00;;;;;;;8.85;4.55;;;;;;;12.57;58.46;97748.44;5091994;28;20464;-50
2022/01/04 09:04:26;;;;;;;6.75;4.82;;;;;;;12.51;58.55;97767.81;5091988;28;20020;-50
2022/01/04 09:06:53;;;;;;;7.13;4.65;;;;;;;12.56;58.72;97757.38;5090616;28;20024;-51
2022/01/04 09:09:19;;;;;;;11.57;5.60;;;;;;;12.62;59.47;97753.03;5090543;28;20024;-50
2022/01/04 09:11:45;;;;;;;12.50;6.10;;;;;;;12.59;58.77;97779.78;5090602;28;20032;-50
2022/01/04 09:14:23;;;;;;;7.13;4.45;;;;;;;12.58;58.56;97718.47;5091917;28;20103;-50
2022/01/04 09:19:34;;;;;;;10.80;6.07;;;;;;;12.60;59.02;97760.34;5091952;28;20108;-51
2022/01/04 09:22:01;;;;;;;10.73;5.40;;;;;;;12.73;59.19;97754.78;5090754;28;20028;-50
2022/01/04 09:24:28;;;;;;;9.43;5.07;;;;;;;12.85;58.02;97733.66;5092927;28;20031;-51
2022/01/04 09:26:55;;;;;;;8.05;5.75;;;;;;;12.84;58.35;97747.03;5095995;28;20066;-51
2022/01/04 09:29:21;;;;;;;11.20;6.95;;;;;;;12.83;58.91;97756.00;5095875;28;20026;-51
2022/01/04 09:31:49;;;;;;;10.13;5.53;;;;;;;12.90;58.85;97719.78;5094524;28;20028;-51
2022/01/04 09:34:14;;;;;;;13.27;6.10;;;;;;;13.04;57.77;97770.28;5095907;28;20028;-51
2022/01/04 09:36:41;;;;;;;7.28;6.35;;;;;;;13.06;59.25;97750.59;5094471;28;20036;-50
2022/01/04 09:39:15;;;;;;;15.88;8.43;;;;;;;13.15;59.10;97757.06;5095806;28;20024;-50
2022/01/04 09:41:42;;;;;;;11.55;6.22;;;;;;;13.16;58.06;97745.50;5095753;28;20020;-51
2022/01/04 09:44:09;;;;;;;11.13;8.27;;;;;;;13.22;58.22;97791.16;5095684;28;20024;-50
2022/01/04 09:46:35;;;;;;;10.90;7.13;;;;;;;13.47;57.01;97774.16;5095416;28;20059;-50
2022/01/04 09:49:01;;;;;;;8.65;6.93;;;;;;;13.48;56.92;97752.84;5095480;28;20020;-51
2022/01/04 09:51:28;;;;;;;11.23;6.63;;;;;;;13.28;57.29;97758.59;5095587;28;20049;-50
2022/01/04 09:53:53;;;;;;;12.30;6.88;;;;;;;13.42;57.60;97763.53;5095529;28;20032;-50
2022/01/04 09:56:19;;;;;;;11.07;6.47;;;;;;;13.61;57.08;97729.81;5095405;28;20024;-51
2022/01/04 09:58:45;;;;;;;10.13;7.28;;;;;;;13.62;56.96;97747.22;5095392;28;20097;-51
2022/01/04 10:01:28;;;;;;;8.30;6.07;;;;;;;13.80;56.51;97760.09;5095377;28;20498;-51
2022/01/04 10:03:54;;;;;;;15.63;8.48;;;;;;;13.90;56.30;97733.88;5095395;28;20035;-51
2022/01/04 10:06:20;;;;;;;12.57;7.63;;;;;;;13.88;56.27;97732.53;5095258;28;20062;-50
2022/01/04 10:08:55;;;;;;;13.25;8.23;;;;;;;13.75;56.12;97641.41;5095148;28;20390;-50
2022/01/04 10:11:37;;;;;;;12.15;8.77;;;;;;;13.55;57.13;97723.66;5093899;28;20119;-51
2022/01/04 10:14:33;;;;;;;12.95;9.98;;;;;;;13.71;57.34;97698.31;5095112;28;20024;-50
2022/01/04 10:17:06;;;;;;;9.88;6.57;;;;;;;13.83;56.33;97722.72;5095038;28;20023;-50
2022/01/04 10:19:48;;;;;;;12.38;7.80;;;;;;;14.03;55.86;97716.88;5095063;28;20036;-50
2022/01/04 10:22:18;;;;;;;12.80;8.88;;;;;;;14.15;55.62;97725.47;5094968;28;20098;-50
2022/01/04 10:25:00;;;;;;;11.48;8.40;;;;;;;14.18;55.44;97740.81;5095004;28;20028;-50
2022/01/04 10:27:36;;;;;;;15.35;10.40;;;;;;;14.24;55.32;97720.53;5093606;28;20039;-50
2022/01/04 10:30:22;;;;;;;13.30;9.45;;;;;;;14.11;55.66;97711.16;5094802;28;20081;-51
2022/01/04 10:33:01;;;;;;;21.92;14.05;;;;;;;14.11;55.81;97713.03;5093715;28;20398;-50
2022/01/04 10:35:31;;;;;;;20.35;11.30;;;;;;;13.86;55.86;97702.97;5094247;28;20052;-50
2022/01/04 10:38:00;;;;;;;10.98;8.38;;;;;;;13.79;56.24;97696.03;5094677;28;20051;-50
2022/01/04 10:40:28;;;;;;;12.65;9.50;;;;;;;13.69;56.68;97705.66;5094644;28;20056;-50
2022/01/04 10:42:54;;;;;;;13.98;8.45;;;;;;;13.61;56.92;97706.88;5094590;28;20529;-51
2022/01/04 10:45:26;;;;;;;12.02;6.75;;;;;;;13.65;56.59;97725.66;5094538;28;20058;-51
2022/01/04 10:47:53;;;;;;;12.30;9.65;;;;;;;13.59;56.53;97719.50;5094072;28;20465;-50
2022/01/04 10:50:34;;;;;;;15.57;10.68;;;;;;;13.68;56.86;97696.97;5094474;28;20062;-50
2022/01/04 10:53:01;;;;;;;15.30;8.95;;;;;;;13.83;56.13;97700.81;5093128;28;20441;-50
2022/01/04 10:55:34;;;;;;;12.43;8.68;;;;;;;13.79;56.09;97698.66;5094407;28;20055;-50
2022/01/04 10:58:02;;;;;;;15.15;9.80;;;;;;;13.94;55.83;97694.63;5094321;28;20110;-51
2022/01/04 11:00:29;;;;;;;15.77;11.20;;;;;;;14.08;55.59;97687.91;5094221;28;20028;-50
2022/01/04 11:02:58;;;;;;;11.77;8.43;;;;;;;14.12;54.86;97702.19;5094220;28;20031;-50
2022/01/04 11:05:25;;;;;;;9.50;7.15;;;;;;;13.96;55.30;97674.06;5094105;28;20032;-51
2022/01/04 11:08:05;;;;;;;15.20;8.40;;;;;;;13.94;55.33;97711.25;5092735;28;20024;-50
2022/01/04 11:10:35;;;;;;;13.45;7.60;;;;;;;13.87;56.02;97662.38;5093998;28;20075;-51
2022/01/04 11:13:02;;;;;;;9.63;6.97;;;;;;;13.92;55.67;97634.22;5092719;28;20028;-51
2022/01/04 11:15:31;;;;;;;8.60;6.15;;;;;;;13.96;55.79;97632.66;5093980;28;20021;-50
2022/01/04 11:17:57;;;;;;;15.50;7.68;;;;;;;14.15;55.07;97646.31;5092593;28;20032;-50
2022/01/04 11:20:23;;;;;;;10.40;6.13;;;;;;;14.03;55.18;97687.06;5092531;28;20402;-50
2022/01/04 11:22:50;;;;;;;13.27;7.45;;;;;;;13.95;55.55;97646.09;5093813;28;20065;-50
2022/01/04 11:25:21;;;;;;;16.52;7.80;;;;;;;14.22;55.56;97632.13;5093805;28;20062;-50
2022/01/04 11:27:48;;;;;;;10.45;7.25;;;;;;;14.43;54.77;97635.72;5093809;28;20032;-50
2022/01/04 11:30:32;;;;;;;10.32;6.50;;;;;;;14.40;54.38;97652.88;5093693;28;20024;-50
2022/01/04 11:33:06;;;;;;;10.13;5.88;;;;;;;14.25;54.80;97653.53;5093683;28;20473;-50
2022/01/04 11:35:32;;;;;;;15.48;6.80;;;;;;;14.45;54.58;97645.00;5093546;28;20505;-51
2022/01/04 11:38:00;;;;;;;16.20;7.38;;;;;;;14.56;53.82;97657.25;5092170;28;20052;-51